createdAt,value
2022-08-27T00:05:10.176Z,28
2022-08-27T00:11:00.821Z,22.6
2022-08-27T00:18:04.100Z,19.8
2022-08-27T00:23:53.259Z,16.9
2022-08-27T00:29:47.298Z,20.3
2022-08-27T00:35:40.379Z,20.4
2022-08-27T00:41:34.076Z,20.7
2022-08-27T00:47:25.283Z,17.5
2022-08-27T00:53:19.675Z,26.2
2022-08-27T00:59:11.244Z,29.1
2022-08-27T01:05:03.752Z,27.7
2022-08-27T01:11:12.318Z,30.7
2022-08-27T01:17:02.245Z,28.4
2022-08-27T01:22:55.677Z,27.8
2022-08-27T01:28:48.354Z,26.6
2022-08-27T01:34:41.453Z,24
2022-08-27T01:40:35.235Z,24.2
2022-08-27T01:46:25.764Z,22.9
2022-08-27T01:52:17.347Z,30
2022-08-27T01:58:15.626Z,26
2022-08-27T02:04:07.835Z,27.1
2022-08-27T02:10:01.316Z,24.8
2022-08-27T02:15:52.482Z,27.7
2022-08-27T02:21:44.422Z,25.5
2022-08-27T02:27:36.892Z,31.1
2022-08-27T02:33:29.807Z,33.1
2022-08-27T02:39:20.353Z,34
2022-08-27T02:45:14.277Z,37.1
2022-08-27T02:51:15.953Z,46
2022-08-27T02:57:09.230Z,49.2
2022-08-27T03:03:00.836Z,57.5
2022-08-27T03:08:58.485Z,64.6
2022-08-27T03:14:48.941Z,70.7
2022-08-27T03:20:39.487Z,69.2
2022-08-27T03:26:32.819Z,64.4
2022-08-27T03:32:24.050Z,72.3
2022-08-27T03:38:16.248Z,84
2022-08-27T03:44:06.531Z,86.7
2022-08-27T03:49:58.441Z,84.9
2022-08-27T03:55:50.111Z,81.4
2022-08-27T04:01:43.925Z,80.9
2022-08-27T04:07:36.349Z,82.5
2022-08-27T04:13:29.453Z,79.2
2022-08-27T04:19:27.832Z,85.1
2022-08-27T04:25:17.832Z,86.3
2022-08-27T04:31:21.977Z,92.4
2022-08-27T04:37:28.412Z,93.8
2022-08-27T04:43:22.140Z,90.1
2022-08-27T04:49:16.854Z,90.7
2022-08-27T04:55:10.114Z,92.9
2022-08-27T05:01:03.431Z,93.1
2022-08-27T05:07:00.716Z,91.1
2022-08-27T05:12:51.825Z,85.2
2022-08-27T05:18:57.318Z,88
2022-08-27T05:24:52.202Z,81.2
2022-08-27T05:30:43.927Z,78.5
2022-08-27T05:36:53.834Z,79
2022-08-27T05:42:53.385Z,73.2
2022-08-27T05:48:45.895Z,69.7
2022-08-27T05:54:37.592Z,66.1
2022-08-27T06:00:31.037Z,67.9
2022-08-27T06:06:22.307Z,62.8
2022-08-27T06:12:15.807Z,67.1
2022-08-27T06:18:06.791Z,70.4
2022-08-27T06:23:57.598Z,74.2
2022-08-27T06:29:49.185Z,81.2
2022-08-27T06:35:40.030Z,80.8
2022-08-27T06:41:31.172Z,80.1
2022-08-27T06:47:25.954Z,76.4
2022-08-27T06:53:16.490Z,77
2022-08-27T06:59:17.111Z,73.4
2022-08-27T07:05:07.500Z,68.6
2022-08-27T07:10:59.908Z,67.4
2022-08-27T07:16:54.764Z,65.6
2022-08-27T07:22:45.851Z,65.4
2022-08-27T07:28:38.363Z,64.6
2022-08-27T07:34:30.273Z,59.8
2022-08-27T07:40:21.766Z,53.8
2022-08-27T07:46:13.218Z,52
2022-08-27T07:52:05.496Z,55.5
2022-08-27T07:57:56.778Z,47.9
2022-08-27T08:03:48.340Z,41.7
2022-08-27T08:09:40.290Z,36.7
2022-08-27T08:15:31.341Z,32.7
2022-08-27T08:21:22.957Z,33.2
2022-08-27T08:27:15.070Z,36.2
2022-08-27T08:33:06.069Z,40.7
2022-08-27T08:38:57.361Z,40.3
2022-08-27T08:44:48.899Z,36.4
2022-08-27T08:50:39.791Z,36.2
2022-08-27T08:56:31.336Z,36.5
2022-08-27T09:02:22.302Z,35.8
2022-08-27T09:08:47.970Z,41.8
2022-08-27T09:14:37.821Z,41.7
2022-08-27T09:20:29.984Z,42.6
2022-08-27T09:26:22.023Z,41.8
2022-08-27T09:32:12.869Z,38.5
2022-08-27T09:38:03.452Z,38.1
2022-08-27T09:43:54.595Z,38
2022-08-27T09:49:45.503Z,36.6
2022-08-27T09:55:42.174Z,35.5
2022-08-27T10:01:33.282Z,42.8
2022-08-27T10:07:25.757Z,47.9
2022-08-27T10:13:16.855Z,45.7
2022-08-27T10:19:08.777Z,44.4
2022-08-27T10:25:00.126Z,39.8
2022-08-27T10:30:51.119Z,40.4
2022-08-27T10:36:43.682Z,41.7
2022-08-27T10:42:35.526Z,40.5
2022-08-27T10:48:26.515Z,43.9
2022-08-27T10:54:19.631Z,46
2022-08-27T11:00:11.791Z,41.6
2022-08-27T11:06:03.359Z,39.1
2022-08-27T11:12:18.822Z,44.9
2022-08-27T11:18:08.809Z,41.6
2022-08-27T11:24:01.009Z,46
2022-08-27T11:29:52.234Z,42.6
2022-08-27T11:35:50.707Z,38.1
2022-08-27T11:41:50.036Z,42.7
2022-08-27T11:47:43.593Z,37.7
2022-08-27T11:53:34.826Z,40.5
2022-08-27T11:59:41.718Z,36.2
2022-08-27T12:05:33.790Z,34.1
2022-08-27T12:11:26.683Z,33.6
2022-08-27T12:17:17.705Z,33.4
2022-08-27T12:23:10.463Z,30.9
2022-08-27T12:29:02.448Z,30.5
2022-08-27T12:35:01.100Z,30.2
2022-08-27T12:40:51.624Z,29.5
2022-08-27T12:46:41.124Z,28.9
2022-08-27T12:52:31.140Z,31
2022-08-27T12:58:21.378Z,27.4
2022-08-27T13:04:10.715Z,25.9
2022-08-27T13:10:03.166Z,21.9
2022-08-27T13:15:53.852Z,21.8
2022-08-27T13:21:44.054Z,16.9
2022-08-27T13:27:34.147Z,18.9
2022-08-27T13:33:23.724Z,18.6
2022-08-27T13:39:12.883Z,21.1
2022-08-27T13:45:02.725Z,20.4
2022-08-27T13:50:56.907Z,20.3
2022-08-27T13:56:50.349Z,19.7
2022-08-27T14:02:41.502Z,16.1
2022-08-27T14:08:46.355Z,17.7
2022-08-27T14:14:37.964Z,19.8
2022-08-27T14:20:29.202Z,20.4
2022-08-27T14:26:20.695Z,17.6
2022-08-27T14:32:13.923Z,22.4
2022-08-27T14:38:06.110Z,21.5
2022-08-27T14:43:57.384Z,20.3
2022-08-27T14:49:50.861Z,19.8
2022-08-27T14:55:51.456Z,21.4
2022-08-27T15:01:42.545Z,20.5
2022-08-27T15:07:34.971Z,23.5
2022-08-27T15:13:27.585Z,22.6
2022-08-27T15:19:18.949Z,20.2
2022-08-27T15:25:11.282Z,19
2022-08-27T15:31:02.893Z,20.8
2022-08-27T15:36:54.714Z,23
2022-08-27T15:42:45.964Z,19.7
2022-08-27T15:48:38.548Z,18.8
2022-08-27T15:54:30.222Z,19.9
2022-08-27T16:00:21.245Z,20.5
2022-08-27T16:06:14.273Z,18.7
2022-08-27T16:12:09.649Z,20
2022-08-27T16:18:16.059Z,19.8
2022-08-27T16:24:08.504Z,20.8
2022-08-27T16:30:01.608Z,21
2022-08-27T16:35:55.654Z,21.9
2022-08-27T16:41:47.017Z,18.1
2022-08-27T16:47:40.398Z,20.5
2022-08-27T16:53:32.613Z,18.8
2022-08-27T16:59:23.883Z,18.3
2022-08-27T17:05:40.278Z,19.2
2022-08-27T17:11:29.847Z,17.1
2022-08-27T17:17:22.253Z,14.2
2022-08-27T17:23:13.497Z,13.7
2022-08-27T17:29:04.844Z,13.9
2022-08-27T17:34:56.329Z,11.6
2022-08-27T17:40:55.345Z,12.6
2022-08-27T17:46:45.926Z,12.5
2022-08-27T17:52:37.438Z,14.1
2022-08-27T17:58:29.445Z,10.9
2022-08-27T18:04:21.206Z,10.7
2022-08-27T18:10:11.400Z,10.3
2022-08-27T18:16:02.840Z,9.3
2022-08-27T18:21:54.855Z,10.6
2022-08-27T18:27:45.446Z,11.8
2022-08-27T18:33:36.698Z,14.6
2022-08-27T18:39:30.538Z,10.8
2022-08-27T18:45:24.776Z,10.8
2022-08-27T18:51:18.652Z,9.6
2022-08-27T18:57:10.022Z,9.6
2022-08-27T19:03:02.699Z,8.7
2022-08-27T19:08:55.198Z,11.7
2022-08-27T19:14:52.295Z,9.8
2022-08-27T19:20:42.675Z,10.9
2022-08-27T19:26:33.681Z,10.2
2022-08-27T19:32:25.956Z,12
2022-08-27T19:38:17.549Z,10.3
2022-08-27T19:44:08.611Z,11.1
2022-08-27T19:50:00.033Z,11.6
2022-08-27T19:55:51.389Z,8.7
2022-08-27T20:01:44.462Z,9.7
2022-08-27T20:07:39.602Z,10.8
2022-08-27T20:13:52.170Z,8.7
2022-08-27T20:19:43.275Z,10.9
2022-08-27T20:25:34.246Z,8.6
2022-08-27T20:31:24.549Z,10.4
2022-08-27T20:37:15.668Z,9.4
2022-08-27T20:43:08.901Z,7.9
2022-08-27T20:48:59.696Z,9.9
2022-08-27T20:54:50.990Z,9.4
2022-08-27T21:00:43.212Z,8.4
2022-08-27T21:06:37.989Z,8
2022-08-27T21:12:28.821Z,9.7
2022-08-27T21:18:22.283Z,7.9
2022-08-27T21:24:20.484Z,12.4
2022-08-27T21:30:12.460Z,8.4
2022-08-27T21:36:13.013Z,9.1
2022-08-27T21:42:05.531Z,10.7
2022-08-27T21:47:58.409Z,8.2
2022-08-27T21:53:49.778Z,11.2
2022-08-27T21:59:41.526Z,10.2
2022-08-27T22:05:35.105Z,13.6
2022-08-27T22:11:33.733Z,9
2022-08-27T22:17:25.729Z,7.9
2022-08-27T22:23:21.883Z,8.9
2022-08-27T22:29:16.314Z,10.6
2022-08-27T22:35:09.772Z,9.3
2022-08-27T22:41:06.279Z,10.3
2022-08-27T22:46:57.163Z,6.9
2022-08-27T22:52:48.594Z,10.2
2022-08-27T22:58:47.923Z,8.4
2022-08-27T23:05:02.494Z,9
2022-08-27T23:10:55.380Z,9.5
2022-08-27T23:16:48.492Z,8.3
2022-08-27T23:22:44.984Z,8.4
2022-08-27T23:28:35.915Z,10.6
2022-08-27T23:34:27.883Z,9.8
2022-08-27T23:40:23.996Z,10.4
2022-08-27T23:46:16.924Z,11.3
2022-08-27T23:52:08.032Z,8.1
2022-08-27T23:58:00.277Z,10.1
